| time (UTC) | temp C | wind direction | speed KPH | gust KPH | rain 1hr cm | rain 24hr cm | rain mn cm | humidity % | barometer mb |
| 20260507181521 | 12 | 114 | 1.6 | 8.0 | 0.00 | 1.55 | 1.02 | 71 | 1006.1 |
| 20260507180024 | 12 | 43 | 1.6 | 8.0 | 0.00 | 1.55 | 1.02 | 73 | 1006.3 |
| 20260507174511 | 12 | 46 | 1.6 | 8.0 | 0.00 | 1.55 | 1.02 | 73 | 1006.5 |
| 20260507173016 | 12 | 89 | 0.0 | 8.0 | 0.00 | 1.55 | 1.02 | 71 | 1006.5 |
| 20260507171518 | 13 | 39 | 1.6 | 8.0 | 0.00 | 1.55 | 1.02 | 70 | 1006.6 |
| 20260507170006 | 12 | 287 | 1.6 | 8.0 | 0.00 | 1.55 | 1.02 | 69 | 1006.7 |
| 20260507164509 | 12 | 319 | 1.6 | 11.3 | 0.00 | 1.55 | 1.02 | 71 | 1006.8 |
| 20260507163019 | 12 | 39 | 1.6 | 9.7 | 0.00 | 1.55 | 1.02 | 72 | 1006.9 |
| 20260507161517 | 12 | 24 | 1.6 | 6.4 | 0.00 | 1.55 | 1.02 | 69 | 1007.1 |
| 20260507160022 | 13 | 315 | 1.6 | 8.0 | 0.00 | 1.55 | 1.02 | 69 | 1007.4 |
| 20260507154506 | 13 | 35 | 1.6 | 9.7 | 0.00 | 1.55 | 1.02 | 75 | 1007.4 |
| 20260507153011 | 12 | 23 | 1.6 | 8.0 | 0.00 | 1.55 | 1.02 | 84 | 1007.6 |
| 20260507151516 | 11 | 46 | 3.2 | 9.7 | 0.00 | 1.55 | 1.02 | 94 | 1007.5 |
| 20260507150021 | 11 | 322 | 0.0 | 8.0 | 0.00 | 1.55 | 1.02 | 94 | 1007.6 |
| 20260507144522 | 11 | 255 | 0.0 | 6.4 | 0.00 | 1.55 | 1.02 | 95 | 1007.5 |
| 20260507143007 | 11 | 159 | 0.0 | 6.4 | 0.00 | 1.55 | 1.02 | 96 | 1007.6 |
| 20260507141511 | 10 | 184 | 0.0 | 4.8 | 0.00 | 1.55 | 1.02 | 95 | 1007.6 |
| 20260507140025 | 10 | 346 | 1.6 | 6.4 | 0.00 | 1.55 | 1.02 | 95 | 1007.8 |
| 20260507134520 | 10 | 231 | 0.0 | 4.8 | 0.00 | 1.55 | 1.02 | 96 | 1007.7 |
| 20260507133024 | 9 | 241 | 0.0 | 6.4 | 0.00 | 1.55 | 1.02 | 96 | 1007.7 |
| 20260507131511 | 9 | 228 | 0.0 | 1.6 | 0.03 | 1.55 | 1.02 | 96 | 1007.7 |
| 20260507130012 | 9 | 251 | 0.0 | 3.2 | 0.05 | 1.55 | 1.02 | 96 | 1007.9 |
| 20260507124519 | 8 | 320 | 0.0 | 6.4 | 0.05 | 1.55 | 1.02 | 96 | 1007.7 |
| 20260507123024 | 8 | 231 | 0.0 | 1.6 | 0.13 | 1.55 | 1.02 | 96 | 1008.0 |
| 20260507121526 | 8 | 231 | 0.0 | 1.6 | 0.13 | 1.52 | 0.99 | 96 | 1007.7 |
| 20260507120026 | 8 | 226 | 0.0 | 1.6 | 0.13 | 1.47 | 0.97 | 96 | 1007.8 |
| 20260507114515 | 8 | 290 | 0.0 | 3.2 | 0.15 | 1.47 | 0.97 | 96 | 1007.8 |
| 20260507113020 | 8 | 223 | 0.0 | 9.7 | 0.10 | 1.42 | 0.89 | 96 | 1008.0 |
| 20260507111523 | 8 | 321 | 1.6 | 6.4 | 0.10 | 1.40 | 0.86 | 96 | 1007.1 |
| 20260507110026 | 9 | 219 | 1.6 | 4.8 | 0.10 | 1.37 | 0.84 | 96 | 1007.2 |
| 20260507103022 | 9 | 252 | 0.0 | 4.8 | 0.15 | 1.32 | 0.79 | 96 | 1006.9 |
| 20260507101535 | 10 | 262 | 0.0 | 3.2 | 0.18 | 1.30 | 0.76 | 96 | 1006.7 |
| 20260507100031 | 10 | 313 | 0.0 | 1.6 | 0.23 | 1.27 | 0.74 | 96 | 1006.8 |
| 20260507094525 | 10 | 335 | 0.0 | 6.4 | 0.23 | 1.24 | 0.71 | 96 | 1006.4 |
| 20260507091541 | 11 | 39 | 0.0 | 3.2 | 0.56 | 1.12 | 0.58 | 96 | 1006.5 |
| 20260507090022 | 11 | 234 | 0.0 | 1.6 | 0.51 | 1.04 | 0.51 | 96 | 1006.7 |
| 20260507084506 | 12 | 323 | 0.0 | 1.6 | 0.48 | 1.02 | 0.48 | 96 | 1006.0 |
| 20260507083015 | 12 | 271 | 0.0 | 6.4 | 0.36 | 0.89 | 0.36 | 97 | 1006.3 |
| 20260507081501 | 12 | 221 | 0.0 | 0.0 | 0.03 | 0.56 | 0.03 | 96 | 1005.9 |
| 20260507080007 | 12 | 171 | 0.0 | 0.0 | 0.00 | 0.53 | 0.00 | 96 | 1005.4 |
| 20260507074508 | 12 | 144 | 0.0 | 0.0 | 0.00 | 0.53 | 0.00 | 96 | 1005.3 |
| 20260507073009 | 12 | 144 | 0.0 | 0.0 | 0.00 | 0.53 | 0.00 | 96 | 1005.7 |
| 20260507071511 | 12 | 150 | 0.0 | 0.0 | 0.00 | 0.53 | 0.00 | 96 | 1005.5 |
| 20260507070003 | 12 | 186 | 0.0 | 0.0 | 0.00 | 0.53 | 0.00 | 96 | 1005.7 |
| 20260507064510 | 12 | 165 | 0.0 | 0.0 | 0.00 | 0.53 | 0.00 | 96 | 1005.6 |
| 20260507063006 | 12 | 176 | 0.0 | 0.0 | 0.00 | 0.53 | 0.00 | 96 | 1005.6 |
| 20260507061526 | 12 | 158 | 0.0 | 0.0 | 0.00 | 0.53 | 0.00 | 96 | 1006.0 |
| 20260507060021 | 12 | 222 | 0.0 | 0.0 | 0.00 | 0.53 | 0.00 | 96 | 1005.9 |
| 20260507054503 | 12 | 201 | 0.0 | 0.0 | 0.00 | 0.53 | 0.00 | 96 | 1006.2 |
| 20260507053006 | 12 | 179 | 0.0 | 0.0 | 0.00 | 0.53 | 0.00 | 96 | 1006.3 |
| 20260507051508 | 12 | 236 | 0.0 | 0.0 | 0.00 | 0.53 | 0.00 | 96 | 1006.5 |
| 20260507050027 | 12 | 184 | 0.0 | 0.0 | 0.00 | 0.53 | 0.00 | 96 | 1006.5 |
| 20260507044534 | 12 | 210 | 0.0 | 1.6 | 0.00 | 0.53 | 0.00 | 96 | 1006.4 |
| 20260507043020 | 12 | 217 | 0.0 | 4.8 | 0.00 | 0.53 | 0.00 | 96 | 1006.6 |
| 20260507041507 | 12 | 205 | 1.6 | 8.0 | 0.00 | 0.53 | 0.00 | 96 | 1006.4 |
| 20260507040011 | 12 | 184 | 0.0 | 4.8 | 0.00 | 0.53 | 0.00 | 96 | 1006.6 |
| 20260507034514 | 12 | 145 | 1.6 | 6.4 | 0.00 | 0.53 | 0.53 | 96 | 1006.7 |
| 20260507033020 | 12 | 101 | 1.6 | 12.9 | 0.00 | 0.53 | 0.53 | 96 | 1006.8 |
| 20260507031523 | 12 | 198 | 1.6 | 8.0 | 0.00 | 0.53 | 0.53 | 96 | 1006.5 |
| 20260507030011 | 12 | 210 | 0.0 | 8.0 | 0.00 | 0.53 | 0.53 | 96 | 1006.2 |
| 20260507024514 | 12 | 201 | 0.0 | 6.4 | 0.00 | 0.53 | 0.53 | 96 | 1006.1 |
| 20260507023017 | 12 | 192 | 1.6 | 9.7 | 0.00 | 0.53 | 0.53 | 96 | 1006.7 |
| 20260507021520 | 12 | 112 | 0.0 | 9.7 | 0.00 | 0.53 | 0.53 | 96 | 1006.9 |
| 20260507020024 | 12 | 243 | 0.0 | 4.8 | 0.00 | 0.53 | 0.53 | 96 | 1007.1 |
| 20260507014509 | 13 | 146 | 1.6 | 8.0 | 0.00 | 0.53 | 0.53 | 96 | 1007.2 |
| 20260507013017 | 13 | 218 | 1.6 | 8.0 | 0.00 | 0.53 | 0.53 | 95 | 1007.3 |
| 20260507011528 | 13 | 156 | 1.6 | 9.7 | 0.03 | 0.53 | 0.53 | 95 | 1007.4 |
| 20260507010023 | 13 | 290 | 1.6 | 11.3 | 0.08 | 0.53 | 0.53 | 96 | 1007.4 |
| 20260507004523 | 13 | 97 | 3.2 | 9.7 | 0.15 | 0.53 | 0.53 | 95 | 1007.4 |
| 20260507003012 | 13 | 200 | 1.6 | 11.3 | 0.41 | 0.53 | 0.53 | 95 | 1007.6 |
| 20260507001518 | 13 | 196 | 1.6 | 12.9 | 0.43 | 0.51 | 0.51 | 95 | 1007.5 |
| 20260507000026 | 13 | 243 | 1.6 | 12.9 | 0.41 | 0.46 | 0.46 | 95 | 1007.5 |
| 20260506234525 | 13 | 248 | 1.6 | 8.0 | 0.36 | 0.38 | 0.38 | 95 | 1007.5 |
| 20260506233026 | 13 | 89 | 3.2 | 16.1 | 0.13 | 0.13 | 0.13 | 94 | 1007.5 |
| 20260506231516 | 13 | 192 | 1.6 | 20.9 | 0.08 | 0.08 | 0.08 | 94 | 1007.6 |
| 20260506230020 | 13 | 201 | 4.8 | 12.9 | 0.05 | 0.05 | 0.05 | 92 | 1007.7 |
| 20260506224524 | 13 | 134 | 3.2 | 11.3 | 0.03 | 0.03 | 0.03 | 91 | 1007.8 |
| 20260506223026 | 14 | 123 | 4.8 | 17.7 | 0.00 | 0.00 | 0.00 | 88 | 1007.8 |
| 20260506221530 | 15 | 113 | 4.8 | 22.5 | 0.00 | 0.00 | 0.00 | 86 | 1008.0 |
| 20260506220019 | 15 | 238 | 3.2 | 17.7 | 0.00 | 0.00 | 0.00 | 86 | 1007.8 |
| 20260506214520 | 15 | 174 | 1.6 | 12.9 | 0.00 | 0.00 | 0.00 | 87 | 1007.8 |
| 20260506213023 | 14 | 167 | 1.6 | 12.9 | 0.00 | 0.00 | 0.00 | 88 | 1008.1 |
| 20260506211525 | 15 | 235 | 0.0 | 9.7 | 0.00 | 0.00 | 0.00 | 86 | 1008.4 |
| 20260506210028 | 16 | 176 | 3.2 | 8.0 | 0.00 | 0.00 | 0.00 | 82 | 1008.4 |
| 20260506204523 | 16 | 165 | 3.2 | 19.3 | 0.00 | 0.00 | 0.00 | 81 | 1008.4 |
| 20260506203003 | 15 | 240 | 3.2 | 17.7 | 0.00 | 0.00 | 0.00 | 82 | 1008.7 |
| 20260506201505 | 15 | 185 | 3.2 | 9.7 | 0.00 | 0.00 | 0.00 | 82 | 1008.8 |
| 20260506200009 | 15 | 96 | 4.8 | 12.9 | 0.00 | 0.00 | 0.00 | 81 | 1009.2 |
| 20260506194514 | 16 | 141 | 1.6 | 12.9 | 0.00 | 0.00 | 0.00 | 81 | 1009.1 |
| 20260506193017 | 16 | 191 | 4.8 | 11.3 | 0.00 | 0.00 | 0.00 | 80 | 1009.3 |
| 20260506191524 | 16 | 216 | 1.6 | 12.9 | 0.00 | 0.00 | 0.00 | 79 | 1009.3 |
| 20260506190007 | 16 | 219 | 3.2 | 12.9 | 0.00 | 0.00 | 0.00 | 79 | 1009.2 |
| 20260506184513 | 16 | 238 | 4.8 | 11.3 | 0.00 | 0.00 | 0.00 | 80 | 1009.7 |
| 20260506183018 | 16 | 212 | 3.2 | 16.1 | 0.00 | 0.00 | 0.00 | 79 | 1009.9 |